sensor_id;sensor_type;location;lat;lon;timestamp;pressure;altitude;pressure_sealevel;temperature;humidity
10464;BME280;5279;42.048;24.638;2023-07-31T00:00:06;96868.50;;;23.64;58.29
10464;BME280;5279;42.048;24.638;2023-07-31T00:02:34;96865.38;;;23.55;57.13
10464;BME280;5279;42.048;24.638;2023-07-31T00:05:01;96872.59;;;23.50;56.64
10464;BME280;5279;42.048;24.638;2023-07-31T00:07:28;96861.78;;;23.50;57.14
10464;BME280;5279;42.048;24.638;2023-07-31T00:09:55;96877.16;;;23.49;57.95
10464;BME280;5279;42.048;24.638;2023-07-31T00:12:23;96880.72;;;23.38;58.25
10464;BME280;5279;42.048;24.638;2023-07-31T00:14:50;96880.25;;;23.41;58.37
10464;BME280;5279;42.048;24.638;2023-07-31T00:17:19;96880.72;;;23.38;57.02
10464;BME280;5279;42.048;24.638;2023-07-31T00:19:46;96891.06;;;23.41;57.19
10464;BME280;5279;42.048;24.638;2023-07-31T00:22:14;96885.09;;;23.39;56.47
10464;BME280;5279;42.048;24.638;2023-07-31T00:24:41;96884.50;;;23.37;56.56
10464;BME280;5279;42.048;24.638;2023-07-31T00:27:08;96882.16;;;23.41;56.92
10464;BME280;5279;42.048;24.638;2023-07-31T00:29:35;96898.69;;;23.44;56.40
10464;BME280;5279;42.048;24.638;2023-07-31T00:32:02;96883.72;;;23.53;56.15
10464;BME280;5279;42.048;24.638;2023-07-31T00:34:31;96889.44;;;23.40;56.09
10464;BME280;5279;42.048;24.638;2023-07-31T00:36:58;96893.47;;;23.54;55.91
10464;BME280;5279;42.048;24.638;2023-07-31T00:39:25;96883.41;;;23.50;55.61
10464;BME280;5279;42.048;24.638;2023-07-31T00:41:52;96901.94;;;23.58;54.69
10464;BME280;5279;42.048;24.638;2023-07-31T00:44:19;96900.63;;;23.60;55.39
10464;BME280;5279;42.048;24.638;2023-07-31T00:46:45;96906.03;;;23.60;54.41
10464;BME280;5279;42.048;24.638;2023-07-31T00:49:13;96907.69;;;23.61;54.28
10464;BME280;5279;42.048;24.638;2023-07-31T00:51:57;96907.69;;;23.61;53.97
10464;BME280;5279;42.048;24.638;2023-07-31T00:54:24;96904.50;;;23.64;54.47
10464;BME280;5279;42.048;24.638;2023-07-31T00:56:53;96902.28;;;23.61;54.16
10464;BME280;5279;42.048;24.638;2023-07-31T00:59:21;96908.72;;;23.60;54.44
10464;BME280;5279;42.048;24.638;2023-07-31T01:01:48;96911.72;;;23.47;54.65
10464;BME280;5279;42.048;24.638;2023-07-31T01:04:16;96920.94;;;23.46;54.49
10464;BME280;5279;42.048;24.638;2023-07-31T01:06:48;96926.34;;;23.46;54.22
10464;BME280;5279;42.048;24.638;2023-07-31T01:09:27;96915.66;;;23.39;54.80
10464;BME280;5279;42.048;24.638;2023-07-31T01:11:57;96914.13;;;23.32;55.20
10464;BME280;5279;42.048;24.638;2023-07-31T01:14:27;96907.47;;;23.23;55.61
10464;BME280;5279;42.048;24.638;2023-07-31T01:16:54;96912.16;;;23.27;55.41
10464;BME280;5279;42.048;24.638;2023-07-31T01:22:53;96916.22;;;23.42;54.09
10464;BME280;5279;42.048;24.638;2023-07-31T01:28:10;96926.00;;;23.59;53.14
10464;BME280;5279;42.048;24.638;2023-07-31T01:30:43;96921.06;;;23.68;52.80
10464;BME280;5279;42.048;24.638;2023-07-31T01:33:10;96928.19;;;23.74;52.40
10464;BME280;5279;42.048;24.638;2023-07-31T01:35:38;96927.44;;;23.78;52.18
10464;BME280;5279;42.048;24.638;2023-07-31T01:38:05;96923.75;;;23.84;52.06
10464;BME280;5279;42.048;24.638;2023-07-31T01:40:32;96923.13;;;23.94;51.52
10464;BME280;5279;42.048;24.638;2023-07-31T01:42:59;96923.47;;;23.98;51.18
10464;BME280;5279;42.048;24.638;2023-07-31T01:45:27;96911.81;;;23.97;51.25
10464;BME280;5279;42.048;24.638;2023-07-31T01:47:54;96922.47;;;24.04;51.11
10464;BME280;5279;42.048;24.638;2023-07-31T01:50:21;96923.03;;;24.06;51.41
10464;BME280;5279;42.048;24.638;2023-07-31T01:52:48;96928.44;;;24.06;51.21
10464;BME280;5279;42.048;24.638;2023-07-31T01:55:15;96927.22;;;23.97;51.74
10464;BME280;5279;42.048;24.638;2023-07-31T01:57:42;96934.34;;;24.03;50.83
10464;BME280;5279;42.048;24.638;2023-07-31T02:00:10;96928.03;;;23.97;51.09
10464;BME280;5279;42.048;24.638;2023-07-31T02:02:38;96928.38;;;24.01;51.47
10464;BME280;5279;42.048;24.638;2023-07-31T02:05:06;96936.00;;;24.04;51.34
10464;BME280;5279;42.048;24.638;2023-07-31T02:07:33;96941.00;;;23.95;52.41
10464;BME280;5279;42.048;24.638;2023-07-31T02:09:59;96941.72;;;23.90;52.97
10464;BME280;5279;42.048;24.638;2023-07-31T02:12:26;96939.50;;;23.87;56.75
10464;BME280;5279;42.048;24.638;2023-07-31T02:14:56;96934.03;;;23.82;59.46
10464;BME280;5279;42.048;24.638;2023-07-31T02:17:22;96928.63;;;23.82;60.75
10464;BME280;5279;42.048;24.638;2023-07-31T02:19:51;96931.81;;;23.79;62.50
10464;BME280;5279;42.048;24.638;2023-07-31T02:22:18;96925.16;;;23.70;64.89
10464;BME280;5279;42.048;24.638;2023-07-31T02:24:45;96924.91;;;23.72;65.65
10464;BME280;5279;42.048;24.638;2023-07-31T02:27:12;96920.47;;;23.66;67.39
10464;BME280;5279;42.048;24.638;2023-07-31T02:29:39;96915.38;;;23.69;68.51
10464;BME280;5279;42.048;24.638;2023-07-31T02:32:06;96910.13;;;23.63;69.80
10464;BME280;5279;42.048;24.638;2023-07-31T02:34:33;96906.38;;;23.64;70.95
10464;BME280;5279;42.048;24.638;2023-07-31T02:37:01;96912.00;;;23.62;71.77
10464;BME280;5279;42.048;24.638;2023-07-31T02:39:28;96903.41;;;23.65;71.61
10464;BME280;5279;42.048;24.638;2023-07-31T02:41:55;96890.47;;;23.67;71.08
10464;BME280;5279;42.048;24.638;2023-07-31T02:44:22;96892.59;;;23.65;71.18
10464;BME280;5279;42.048;24.638;2023-07-31T02:46:49;96881.75;;;23.65;71.01
10464;BME280;5279;42.048;24.638;2023-07-31T02:49:16;96884.56;;;23.70;70.62
10464;BME280;5279;42.048;24.638;2023-07-31T02:51:43;96874.81;;;23.69;70.29
10464;BME280;5279;42.048;24.638;2023-07-31T02:54:11;96863.28;;;23.74;69.83
10464;BME280;5279;42.048;24.638;2023-07-31T02:56:38;96858.16;;;23.77;69.23
10464;BME280;5279;42.048;24.638;2023-07-31T02:59:05;96860.97;;;23.82;68.54
10464;BME280;5279;42.048;24.638;2023-07-31T03:01:32;96860.81;;;23.89;68.83
10464;BME280;5279;42.048;24.638;2023-07-31T03:03:59;96863.50;;;23.89;68.11
10464;BME280;5279;42.048;24.638;2023-07-31T03:06:26;96855.19;;;23.95;67.54
10464;BME280;5279;42.048;24.638;2023-07-31T03:08:53;96851.94;;;23.93;69.37
10464;BME280;5279;42.048;24.638;2023-07-31T03:11:22;96848.91;;;24.07;69.58
10464;BME280;5279;42.048;24.638;2023-07-31T03:13:49;96843.22;;;24.08;70.25
10464;BME280;5279;42.048;24.638;2023-07-31T03:16:16;96851.25;;;24.20;70.86
10464;BME280;5279;42.048;24.638;2023-07-31T03:18:42;96857.84;;;24.24;71.91
10464;BME280;5279;42.048;24.638;2023-07-31T03:21:09;96852.84;;;24.16;71.27
10464;BME280;5279;42.048;24.638;2023-07-31T03:23:36;96861.59;;;24.23;71.72
10464;BME280;5279;42.048;24.638;2023-07-31T03:26:07;96881.16;;;24.25;73.40
10464;BME280;5279;42.048;24.638;2023-07-31T03:28:35;96892.31;;;24.12;77.99
10464;BME280;5279;42.048;24.638;2023-07-31T03:31:02;96898.19;;;23.92;73.50
10464;BME280;5279;42.048;24.638;2023-07-31T03:33:29;96897.84;;;23.72;80.94
10464;BME280;5279;42.048;24.638;2023-07-31T03:35:56;96904.72;;;23.46;91.09
10464;BME280;5279;42.048;24.638;2023-07-31T03:38:23;96908.34;;;23.12;100.00
10464;BME280;5279;42.048;24.638;2023-07-31T03:40:50;96907.81;;;22.86;100.00
10464;BME280;5279;42.048;24.638;2023-07-31T03:43:17;96903.41;;;22.46;100.00
10464;BME280;5279;42.048;24.638;2023-07-31T03:45:45;96922.66;;;22.49;100.00
10464;BME280;5279;42.048;24.638;2023-07-31T03:48:13;96931.47;;;22.33;100.00
10464;BME280;5279;42.048;24.638;2023-07-31T03:50:41;96938.97;;;22.31;100.00
10464;BME280;5279;42.048;24.638;2023-07-31T03:53:07;96958.91;;;22.18;100.00
10464;BME280;5279;42.048;24.638;2023-07-31T03:55:34;96948.22;;;22.00;100.00
10464;BME280;5279;42.048;24.638;2023-07-31T03:58:01;96954.19;;;21.91;100.00
10464;BME280;5279;42.048;24.638;2023-07-31T04:00:28;96968.53;;;21.73;100.00
10464;BME280;5279;42.048;24.638;2023-07-31T04:02:57;96966.38;;;21.63;100.00
10464;BME280;5279;42.048;24.638;2023-07-31T04:05:24;96970.75;;;21.46;100.00
10464;BME280;5279;42.048;24.638;2023-07-31T04:07:51;96975.94;;;21.48;100.00
10464;BME280;5279;42.048;24.638;2023-07-31T04:10:18;96968.25;;;21.33;100.00
10464;BME280;5279;42.048;24.638;2023-07-31T04:12:45;96989.75;;;21.40;100.00
10464;BME280;5279;42.048;24.638;2023-07-31T04:15:12;96995.94;;;21.40;100.00
10464;BME280;5279;42.048;24.638;2023-07-31T04:17:39;97004.19;;;21.45;100.00
10464;BME280;5279;42.048;24.638;2023-07-31T04:20:09;96995.41;;;21.50;100.00
10464;BME280;5279;42.048;24.638;2023-07-31T04:22:36;96997.88;;;21.51;100.00
10464;BME280;5279;42.048;24.638;2023-07-31T04:25:03;96987.25;;;21.38;100.00
10464;BME280;5279;42.048;24.638;2023-07-31T04:27:30;96996.84;;;21.34;100.00
10464;BME280;5279;42.048;24.638;2023-07-31T04:29:57;96995.22;;;21.33;100.00
10464;BME280;5279;42.048;24.638;2023-07-31T04:32:24;96992.16;;;21.30;100.00
10464;BME280;5279;42.048;24.638;2023-07-31T04:34:51;97006.72;;;21.40;100.00
10464;BME280;5279;42.048;24.638;2023-07-31T04:37:19;96993.84;;;21.42;100.00
10464;BME280;5279;42.048;24.638;2023-07-31T04:39:46;96998.78;;;21.45;100.00
10464;BME280;5279;42.048;24.638;2023-07-31T04:42:13;96996.81;;;21.52;100.00
10464;BME280;5279;42.048;24.638;2023-07-31T04:44:40;96991.13;;;21.60;100.00
10464;BME280;5279;42.048;24.638;2023-07-31T04:47:07;96996.31;;;21.73;100.00
10464;BME280;5279;42.048;24.638;2023-07-31T04:49:34;96985.88;;;21.77;100.00
10464;BME280;5279;42.048;24.638;2023-07-31T04:52:01;96984.44;;;21.93;100.00
10464;BME280;5279;42.048;24.638;2023-07-31T04:54:30;96986.34;;;22.04;100.00
10464;BME280;5279;42.048;24.638;2023-07-31T04:56:57;96986.59;;;22.14;100.00
10464;BME280;5279;42.048;24.638;2023-07-31T04:59:23;96984.88;;;22.31;100.00
10464;BME280;5279;42.048;24.638;2023-07-31T05:01:50;96989.91;;;22.39;100.00
10464;BME280;5279;42.048;24.638;2023-07-31T05:04:17;96979.00;;;22.46;100.00
10464;BME280;5279;42.048;24.638;2023-07-31T05:06:44;96983.81;;;22.55;100.00
10464;BME280;5279;42.048;24.638;2023-07-31T05:09:11;96978.88;;;22.64;100.00
10464;BME280;5279;42.048;24.638;2023-07-31T05:11:40;96981.22;;;22.83;100.00
10464;BME280;5279;42.048;24.638;2023-07-31T05:14:08;96974.53;;;22.98;100.00
10464;BME280;5279;42.048;24.638;2023-07-31T05:16:35;96976.28;;;23.04;100.00
10464;BME280;5279;42.048;24.638;2023-07-31T05:19:02;96982.59;;;23.09;100.00
10464;BME280;5279;42.048;24.638;2023-07-31T05:21:29;96986.81;;;23.17;100.00
10464;BME280;5279;42.048;24.638;2023-07-31T05:23:56;96991.50;;;23.21;100.00
10464;BME280;5279;42.048;24.638;2023-07-31T05:26:23;96983.75;;;23.25;100.00
10464;BME280;5279;42.048;24.638;2023-07-31T05:28:51;96988.06;;;23.37;100.00
10464;BME280;5279;42.048;24.638;2023-07-31T05:31:18;96995.00;;;23.45;100.00
10464;BME280;5279;42.048;24.638;2023-07-31T05:33:46;96994.25;;;23.61;100.00
10464;BME280;5279;42.048;24.638;2023-07-31T05:36:13;96998.06;;;23.93;100.00
10464;BME280;5279;42.048;24.638;2023-07-31T05:38:40;96998.06;;;24.22;100.00
10464;BME280;5279;42.048;24.638;2023-07-31T05:41:07;96989.28;;;24.48;100.00
10464;BME280;5279;42.048;24.638;2023-07-31T05:43:34;96987.94;;;24.67;93.32
10464;BME280;5279;42.048;24.638;2023-07-31T05:46:03;96999.69;;;24.89;86.55
10464;BME280;5279;42.048;24.638;2023-07-31T05:48:30;97001.97;;;24.97;88.42
10464;BME280;5279;42.048;24.638;2023-07-31T05:50:57;96999.69;;;24.73;85.38
10464;BME280;5279;42.048;24.638;2023-07-31T05:53:23;97013.16;;;24.84;86.68
10464;BME280;5279;42.048;24.638;2023-07-31T05:55:50;96999.28;;;24.64;84.92
10464;BME280;5279;42.048;24.638;2023-07-31T05:58:17;97011.91;;;24.75;83.11
10464;BME280;5279;42.048;24.638;2023-07-31T06:00:44;97013.38;;;24.66;84.87
10464;BME280;5279;42.048;24.638;2023-07-31T06:03:12;97004.88;;;24.58;82.92
10464;BME280;5279;42.048;24.638;2023-07-31T06:05:39;97013.31;;;24.61;83.96
10464;BME280;5279;42.048;24.638;2023-07-31T06:08:06;97011.09;;;24.58;82.38
10464;BME280;5279;42.048;24.638;2023-07-31T06:10:33;97018.66;;;24.73;83.34
10464;BME280;5279;42.048;24.638;2023-07-31T06:13:00;97011.28;;;24.68;82.60
10464;BME280;5279;42.048;24.638;2023-07-31T06:15:27;97003.72;;;24.70;81.16
10464;BME280;5279;42.048;24.638;2023-07-31T06:17:54;97011.53;;;24.83;80.69
10464;BME280;5279;42.048;24.638;2023-07-31T06:20:22;97008.44;;;24.96;82.57
10464;BME280;5279;42.048;24.638;2023-07-31T06:22:49;97010.50;;;25.28;78.88
10464;BME280;5279;42.048;24.638;2023-07-31T06:25:16;97008.47;;;25.40;76.78
10464;BME280;5279;42.048;24.638;2023-07-31T06:27:43;97015.34;;;25.47;75.26
10464;BME280;5279;42.048;24.638;2023-07-31T06:30:11;97014.63;;;25.52;77.07
10464;BME280;5279;42.048;24.638;2023-07-31T06:32:38;97020.97;;;25.41;74.75
10464;BME280;5279;42.048;24.638;2023-07-31T06:35:06;97014.47;;;25.42;77.27
10464;BME280;5279;42.048;24.638;2023-07-31T06:37:35;97007.22;;;25.26;77.06
10464;BME280;5279;42.048;24.638;2023-07-31T06:40:02;97014.97;;;25.17;79.04
10464;BME280;5279;42.048;24.638;2023-07-31T06:42:30;97007.41;;;25.19;78.90
10464;BME280;5279;42.048;24.638;2023-07-31T06:44:57;97008.84;;;25.27;77.96
10464;BME280;5279;42.048;24.638;2023-07-31T06:47:24;97007.84;;;25.33;78.32
10464;BME280;5279;42.048;24.638;2023-07-31T06:49:51;97015.16;;;25.11;79.34
10464;BME280;5279;42.048;24.638;2023-07-31T06:52:18;97002.69;;;25.31;78.83
10464;BME280;5279;42.048;24.638;2023-07-31T06:55:00;97005.22;;;25.38;78.11
10464;BME280;5279;42.048;24.638;2023-07-31T06:57:28;97005.44;;;25.53;78.23
10464;BME280;5279;42.048;24.638;2023-07-31T06:59:54;97011.31;;;25.72;75.85
10464;BME280;5279;42.048;24.638;2023-07-31T07:02:21;96995.25;;;25.92;75.70
10464;BME280;5279;42.048;24.638;2023-07-31T07:04:49;97003.75;;;26.00;74.95
10464;BME280;5279;42.048;24.638;2023-07-31T07:07:17;97003.75;;;26.00;73.29
10464;BME280;5279;42.048;24.638;2023-07-31T07:09:44;97007.59;;;26.04;74.32
10464;BME280;5279;42.048;24.638;2023-07-31T07:12:12;97007.63;;;26.09;73.05
10464;BME280;5279;42.048;24.638;2023-07-31T07:14:39;97007.78;;;26.20;71.89
10464;BME280;5279;42.048;24.638;2023-07-31T07:17:06;97004.88;;;26.04;73.41
10464;BME280;5279;42.048;24.638;2023-07-31T07:19:33;96997.59;;;26.37;71.32
10464;BME280;5279;42.048;24.638;2023-07-31T07:22:00;96996.41;;;26.59;70.86
10464;BME280;5279;42.048;24.638;2023-07-31T07:24:27;97008.47;;;26.74;68.63
10464;BME280;5279;42.048;24.638;2023-07-31T07:26:54;97014.81;;;26.84;68.59
10464;BME280;5279;42.048;24.638;2023-07-31T07:29:23;97009.97;;;26.91;70.36
10464;BME280;5279;42.048;24.638;2023-07-31T07:31:49;97021.38;;;26.88;69.33
10464;BME280;5279;42.048;24.638;2023-07-31T07:34:16;97011.84;;;26.86;71.14
10464;BME280;5279;42.048;24.638;2023-07-31T07:36:44;97007.84;;;26.98;70.02
10464;BME280;5279;42.048;24.638;2023-07-31T07:39:11;97011.97;;;26.69;69.26
10464;BME280;5279;42.048;24.638;2023-07-31T07:41:38;97015.25;;;26.39;71.13
10464;BME280;5279;42.048;24.638;2023-07-31T07:44:05;97018.19;;;26.33;71.67
10464;BME280;5279;42.048;24.638;2023-07-31T07:46:33;97008.03;;;26.50;73.71
10464;BME280;5279;42.048;24.638;2023-07-31T07:49:00;97007.50;;;26.53;73.46
10464;BME280;5279;42.048;24.638;2023-07-31T07:51:27;97010.22;;;26.53;73.89
10464;BME280;5279;42.048;24.638;2023-07-31T07:53:56;97018.53;;;26.73;71.80
10464;BME280;5279;42.048;24.638;2023-07-31T07:56:23;97011.56;;;26.82;71.90
10464;BME280;5279;42.048;24.638;2023-07-31T07:58:50;97020.31;;;26.94;70.68
10464;BME280;5279;42.048;24.638;2023-07-31T08:01:17;97030.03;;;26.80;70.86
10464;BME280;5279;42.048;24.638;2023-07-31T08:03:46;97014.22;;;26.77;71.93
10464;BME280;5279;42.048;24.638;2023-07-31T08:06:14;97016.53;;;26.95;71.40
10464;BME280;5279;42.048;24.638;2023-07-31T08:08:41;97014.44;;;27.07;69.26
10464;BME280;5279;42.048;24.638;2023-07-31T08:11:08;96998.22;;;27.28;69.20
10464;BME280;5279;42.048;24.638;2023-07-31T08:13:35;97002.28;;;27.30;68.68
10464;BME280;5279;42.048;24.638;2023-07-31T08:16:02;97019.50;;;27.41;69.24
10464;BME280;5279;42.048;24.638;2023-07-31T08:18:30;97010.31;;;27.52;68.12
10464;BME280;5279;42.048;24.638;2023-07-31T08:20:58;97011.97;;;27.53;67.16
10464;BME280;5279;42.048;24.638;2023-07-31T08:23:25;97003.56;;;27.64;65.55
10464;BME280;5279;42.048;24.638;2023-07-31T08:25:52;97005.50;;;27.79;65.51
10464;BME280;5279;42.048;24.638;2023-07-31T08:28:19;96997.03;;;27.71;64.77
10464;BME280;5279;42.048;24.638;2023-07-31T08:30:46;96992.91;;;27.48;64.41
10464;BME280;5279;42.048;24.638;2023-07-31T08:33:13;96998.44;;;27.78;64.63
10464;BME280;5279;42.048;24.638;2023-07-31T08:35:40;96990.91;;;28.26;63.37
10464;BME280;5279;42.048;24.638;2023-07-31T08:38:08;96993.91;;;28.49;59.42
10464;BME280;5279;42.048;24.638;2023-07-31T08:40:36;96999.09;;;28.26;58.50
10464;BME280;5279;42.048;24.638;2023-07-31T08:43:04;97008.91;;;28.67;59.93
10464;BME280;5279;42.048;24.638;2023-07-31T08:45:31;96990.25;;;29.24;56.67
10464;BME280;5279;42.048;24.638;2023-07-31T08:47:59;96992.72;;;29.36;55.25
10464;BME280;5279;42.048;24.638;2023-07-31T08:50:26;96996.19;;;29.47;54.81
10464;BME280;5279;42.048;24.638;2023-07-31T08:52:53;96994.44;;;29.76;53.66
10464;BME280;5279;42.048;24.638;2023-07-31T08:55:21;96992.16;;;29.93;53.23
10464;BME280;5279;42.048;24.638;2023-07-31T08:57:51;96994.25;;;30.11;51.29
10464;BME280;5279;42.048;24.638;2023-07-31T09:00:20;97002.84;;;30.33;50.75
10464;BME280;5279;42.048;24.638;2023-07-31T09:02:55;96991.97;;;30.23;51.51
10464;BME280;5279;42.048;24.638;2023-07-31T09:05:23;96988.00;;;30.45;49.92
10464;BME280;5279;42.048;24.638;2023-07-31T09:07:50;96989.09;;;30.44;50.32
10464;BME280;5279;42.048;24.638;2023-07-31T09:10:18;96987.78;;;30.31;49.36
10464;BME280;5279;42.048;24.638;2023-07-31T09:12:46;96990.59;;;30.60;49.62
10464;BME280;5279;42.048;24.638;2023-07-31T09:15:13;96988.09;;;30.92;49.54
10464;BME280;5279;42.048;24.638;2023-07-31T09:17:41;96991.28;;;31.04;46.99
10464;BME280;5279;42.048;24.638;2023-07-31T09:20:15;96976.41;;;31.15;47.54
10464;BME280;5279;42.048;24.638;2023-07-31T09:22:43;96971.72;;;31.39;45.94
10464;BME280;5279;42.048;24.638;2023-07-31T09:25:17;96991.53;;;31.31;46.66
10464;BME280;5279;42.048;24.638;2023-07-31T09:27:50;96985.94;;;31.41;45.52
10464;BME280;5279;42.048;24.638;2023-07-31T09:30:18;96987.97;;;31.78;45.78
10464;BME280;5279;42.048;24.638;2023-07-31T09:32:46;96988.50;;;31.57;45.07
10464;BME280;5279;42.048;24.638;2023-07-31T09:35:18;96981.28;;;31.66;44.08
10464;BME280;5279;42.048;24.638;2023-07-31T09:37:49;96966.97;;;31.69;43.90
10464;BME280;5279;42.048;24.638;2023-07-31T09:40:25;96969.00;;;30.87;44.45
10464;BME280;5279;42.048;24.638;2023-07-31T09:42:55;96964.03;;;30.94;45.83
10464;BME280;5279;42.048;24.638;2023-07-31T09:45:23;96977.66;;;30.99;45.70
10464;BME280;5279;42.048;24.638;2023-07-31T09:47:50;96971.44;;;31.17;44.83
10464;BME280;5279;42.048;24.638;2023-07-31T09:50:19;96971.63;;;31.50;44.74
10464;BME280;5279;42.048;24.638;2023-07-31T09:52:46;96963.88;;;31.57;43.79
10464;BME280;5279;42.048;24.638;2023-07-31T09:55:13;96964.53;;;31.49;43.37
10464;BME280;5279;42.048;24.638;2023-07-31T09:57:41;96966.03;;;31.97;44.59
10464;BME280;5279;42.048;24.638;2023-07-31T10:00:11;96970.41;;;32.35;42.02
10464;BME280;5279;42.048;24.638;2023-07-31T10:02:39;96978.03;;;32.38;40.81
10464;BME280;5279;42.048;24.638;2023-07-31T10:05:07;96971.59;;;32.11;41.09
10464;BME280;5279;42.048;24.638;2023-07-31T10:07:37;96965.75;;;32.17;41.31
10464;BME280;5279;42.048;24.638;2023-07-31T10:10:07;96976.81;;;32.12;40.39
10464;BME280;5279;42.048;24.638;2023-07-31T10:12:35;96961.31;;;32.21;40.17
10464;BME280;5279;42.048;24.638;2023-07-31T10:15:03;96957.19;;;32.56;39.96
10464;BME280;5279;42.048;24.638;2023-07-31T10:17:33;96954.66;;;32.41;40.67
10464;BME280;5279;42.048;24.638;2023-07-31T10:20:02;96946.31;;;32.32;39.50
10464;BME280;5279;42.048;24.638;2023-07-31T10:22:30;96948.41;;;32.54;39.96
10464;BME280;5279;42.048;24.638;2023-07-31T10:24:58;96947.97;;;32.66;38.05
10464;BME280;5279;42.048;24.638;2023-07-31T10:27:25;96937.34;;;33.05;37.76
10464;BME280;5279;42.048;24.638;2023-07-31T10:29:53;96935.34;;;33.24;36.66
10464;BME280;5279;42.048;24.638;2023-07-31T10:32:22;96915.81;;;33.12;35.39
10464;BME280;5279;42.048;24.638;2023-07-31T10:34:51;96919.47;;;33.21;36.05
10464;BME280;5279;42.048;24.638;2023-07-31T10:37:23;96923.22;;;33.52;37.63
10464;BME280;5279;42.048;24.638;2023-07-31T10:39:58;96921.00;;;33.90;35.80
10464;BME280;5279;42.048;24.638;2023-07-31T10:42:30;96920.44;;;33.80;35.84
10464;BME280;5279;42.048;24.638;2023-07-31T10:44:58;96900.88;;;33.18;35.73
10464;BME280;5279;42.048;24.638;2023-07-31T10:47:26;96908.47;;;32.94;36.11
10464;BME280;5279;42.048;24.638;2023-07-31T10:50:11;96911.28;;;32.62;37.49
10464;BME280;5279;42.048;24.638;2023-07-31T10:52:38;96904.16;;;32.61;37.12
10464;BME280;5279;42.048;24.638;2023-07-31T10:55:26;96904.81;;;32.85;36.94
10464;BME280;5279;42.048;24.638;2023-07-31T10:57:54;96892.81;;;33.49;37.03
10464;BME280;5279;42.048;24.638;2023-07-31T11:00:23;96891.13;;;33.75;35.85
10464;BME280;5279;42.048;24.638;2023-07-31T11:02:58;96894.19;;;33.74;33.92
10464;BME280;5279;42.048;24.638;2023-07-31T11:05:51;96906.53;;;33.98;33.45
10464;BME280;5279;42.048;24.638;2023-07-31T11:08:22;96889.03;;;33.94;35.37
10464;BME280;5279;42.048;24.638;2023-07-31T11:10:51;96885.06;;;34.23;33.40
10464;BME280;5279;42.048;24.638;2023-07-31T11:13:19;96891.59;;;33.91;34.00
10464;BME280;5279;42.048;24.638;2023-07-31T11:15:46;96896.06;;;33.65;33.74
10464;BME280;5279;42.048;24.638;2023-07-31T11:18:13;96881.84;;;33.08;34.19
10464;BME280;5279;42.048;24.638;2023-07-31T11:20:42;96882.53;;;33.00;34.74
10464;BME280;5279;42.048;24.638;2023-07-31T11:23:11;96884.88;;;32.33;35.50
10464;BME280;5279;42.048;24.638;2023-07-31T11:25:39;96885.97;;;32.32;37.16
10464;BME280;5279;42.048;24.638;2023-07-31T11:28:09;96877.16;;;32.35;36.57
10464;BME280;5279;42.048;24.638;2023-07-31T11:30:36;96868.31;;;32.38;37.46
10464;BME280;5279;42.048;24.638;2023-07-31T11:33:05;96869.44;;;32.70;36.35
10464;BME280;5279;42.048;24.638;2023-07-31T11:35:33;96868.03;;;33.13;37.49
10464;BME280;5279;42.048;24.638;2023-07-31T11:38:01;96859.03;;;33.35;36.64
10464;BME280;5279;42.048;24.638;2023-07-31T11:40:30;96860.16;;;33.34;36.14
10464;BME280;5279;42.048;24.638;2023-07-31T11:42:57;96868.13;;;33.22;35.28
10464;BME280;5279;42.048;24.638;2023-07-31T11:45:27;96866.50;;;33.57;34.85
10464;BME280;5279;42.048;24.638;2023-07-31T11:47:55;96876.91;;;34.18;34.40
10464;BME280;5279;42.048;24.638;2023-07-31T11:50:23;96874.41;;;34.30;39.09
10464;BME280;5279;42.048;24.638;2023-07-31T11:52:53;96871.81;;;34.55;39.33
10464;BME280;5279;42.048;24.638;2023-07-31T11:55:22;96878.94;;;34.56;38.97
10464;BME280;5279;42.048;24.638;2023-07-31T11:57:51;96876.25;;;34.34;39.46
10464;BME280;5279;42.048;24.638;2023-07-31T12:00:20;96876.56;;;33.75;40.87
10464;BME280;5279;42.048;24.638;2023-07-31T12:02:47;96875.53;;;33.21;42.29
10464;BME280;5279;42.048;24.638;2023-07-31T12:05:14;96876.56;;;32.98;42.51
10464;BME280;5279;42.048;24.638;2023-07-31T12:07:46;96887.13;;;33.32;44.12
10464;BME280;5279;42.048;24.638;2023-07-31T12:10:23;96859.91;;;33.58;43.05
10464;BME280;5279;42.048;24.638;2023-07-31T12:13:00;96857.22;;;34.02;40.77
10464;BME280;5279;42.048;24.638;2023-07-31T12:15:35;96850.00;;;34.28;40.46
10464;BME280;5279;42.048;24.638;2023-07-31T12:18:08;96849.81;;;34.55;39.39
10464;BME280;5279;42.048;24.638;2023-07-31T12:20:35;96850.44;;;34.52;39.22
10464;BME280;5279;42.048;24.638;2023-07-31T12:23:02;96840.91;;;34.28;38.46
10464;BME280;5279;42.048;24.638;2023-07-31T12:25:30;96837.41;;;33.91;38.48
10464;BME280;5279;42.048;24.638;2023-07-31T12:28:03;96846.84;;;33.77;39.48
10464;BME280;5279;42.048;24.638;2023-07-31T12:30:32;96827.97;;;33.48;40.25
10464;BME280;5279;42.048;24.638;2023-07-31T12:33:03;96835.75;;;33.32;40.68
10464;BME280;5279;42.048;24.638;2023-07-31T12:35:35;96819.22;;;33.10;41.09
10464;BME280;5279;42.048;24.638;2023-07-31T12:38:03;96828.38;;;32.65;41.15
10464;BME280;5279;42.048;24.638;2023-07-31T12:40:30;96825.09;;;32.63;42.09
10464;BME280;5279;42.048;24.638;2023-07-31T12:42:56;96827.59;;;32.45;42.56
10464;BME280;5279;42.048;24.638;2023-07-31T12:45:25;96819.00;;;32.66;43.65
10464;BME280;5279;42.048;24.638;2023-07-31T12:47:52;96819.63;;;32.63;42.15
10464;BME280;5279;42.048;24.638;2023-07-31T12:50:19;96829.59;;;32.59;42.17
10464;BME280;5279;42.048;24.638;2023-07-31T12:52:46;96827.72;;;32.54;42.23
10464;BME280;5279;42.048;24.638;2023-07-31T12:55:13;96825.72;;;32.60;42.45
10464;BME280;5279;42.048;24.638;2023-07-31T12:57:40;96826.06;;;32.39;42.72
10464;BME280;5279;42.048;24.638;2023-07-31T13:00:08;96829.31;;;32.28;43.42
10464;BME280;5279;42.048;24.638;2023-07-31T13:02:36;96830.81;;;32.20;43.09
10464;BME280;5279;42.048;24.638;2023-07-31T13:05:04;96829.28;;;32.14;43.54
10464;BME280;5279;42.048;24.638;2023-07-31T13:07:31;96821.56;;;32.16;44.36